Etusivu
METAR-TAF:

METAR-TAF

Lentoasemat :

Kuwait, Kuwait

Kuwaitin kansainvälinen lentoasema

Leveyspiiri: 29-13N, Pituuspiiri: 047-59E, korkeus merenpinnasta: 55 m

Tämänhetkinen sää

Tämä raportti tehtiin 55 minuuttia sitten, kello 06.00 UTC
Tuuli 14 kn luoteesta
Lämpötila 15°C
Kosteus 39%
Ilmanpaine 1021 hPa
Näkyvyys: 3500 m
(heikkoa) usvaa

METAR: OKBK 200600Z 32014KT 3500 -HZ NSC 15/01 Q1021 NOSIG

Aika: 09:55 (06:55 UTC)

Sääennuste

Tämä raportti tehtiin 8 tuntia ja 10 minuuttia sitten, kello 22.45 UTC
Ennuste voimassa 20. päivästä klo 00 UTC - 21. päivään klo 06 UTC
Tuuli 12 kn pohjoisen/luoteesta puuskistuen 25 kn:hen
Näkyvyys: 2000 m
pölymyrsky
Ajoittain
20. päivästä klo 00 UTC - 20. päivään klo 04 UTC
Näkyvyys: 0500 m

TAF: OKBK 192245Z 2000/2106 34012G25KT 2000 BLDU NSC TEMPO 2000/2004 0500 DS

Säähavainnot ja -ennusteet yli 4000 lentoasemalta (METAR- ja TAF-raportit).

Käytössä olevat sääasemat on merkitty karttaan keltaisilla ja punaisilla pisteillä.

Aseta hiiri pisteen päälle nähdäksesi sääaseman nimen.

Klikkaa sitten nähdäksesi säähavainnot ja -ennusteet.

Kartan vaihtaminen: klikkaa mustalla rastilla varustettuja vihreitä pisteitä, niin voit zoomata sisään; viivalla varustettua vihreää pistettä, niin voit zoomata ulos tai vihreitä nuolia, niin pääset viereisille kartoille.


METAR-TAF: